Time;durP1;ratioP1;P1;durP2;ratioP2;P2;SDS_P1;SDS_P2;PMS_P1;PMS_P2;Temp;Humidity;BMP_temperature;BMP_pressure;BME280_temperature;BME280_humidity;BME280_pressure;Samples;Min_cycle;Max_cycle;Signal;HPM_P1;HPM_P2
2023/07/11 00:00:06;;;;;;;4.10;1.80;;;17.40;99.90;;;;;;5130464;27;20030;-64
2023/07/11 00:02:31;;;;;;;9.57;2.33;;;17.40;99.90;;;;;;5137771;27;20077;-64
2023/07/11 00:04:58;;;;;;;4.57;2.25;;;17.30;99.90;;;;;;5130344;27;20043;-64
2023/07/11 00:07:25;;;;;;;5.00;2.10;;;17.30;99.90;;;;;;5116132;27;20044;-63
2023/07/11 00:09:50;;;;;;;5.07;2.45;;;17.30;99.90;;;;;;5102762;27;20050;-65
2023/07/11 00:12:16;;;;;;;5.25;1.90;;;17.20;99.90;;;;;;5149451;27;20512;-64
2023/07/11 00:14:43;;;;;;;5.50;2.15;;;17.20;99.90;;;;;;5120716;27;20031;-64
2023/07/11 00:17:09;;;;;;;5.20;2.22;;;17.20;99.90;;;;;;5118084;27;20035;-65
2023/07/11 00:19:47;;;;;;;5.43;2.20;;;17.10;99.90;;;;;;5118444;27;20063;-63
2023/07/11 00:22:13;;;;;;;4.20;1.90;;;17.10;99.90;;;;;;5135663;27;20050;-65
2023/07/11 00:24:39;;;;;;;4.78;1.90;;;17.10;99.90;;;;;;5134955;27;20035;-65
2023/07/11 00:27:04;;;;;;;6.82;1.92;;;17.10;99.90;;;;;;5124968;27;20047;-64
2023/07/11 00:29:30;;;;;;;5.45;1.77;;;17.10;99.90;;;;;;5135878;27;20030;-64
2023/07/11 00:31:56;;;;;;;5.07;2.35;;;17.10;99.90;;;;;;5131114;27;20050;-63
2023/07/11 00:34:21;;;;;;;4.60;1.98;;;17.10;99.90;;;;;;5119922;27;20060;-65
2023/07/11 00:36:47;;;;;;;4.97;2.50;;;17.10;99.90;;;;;;5137926;27;20542;-65
2023/07/11 00:39:15;;;;;;;6.90;1.90;;;17.10;99.90;;;;;;5112772;27;20409;-65
2023/07/11 00:41:41;;;;;;;3.60;1.77;;;17.10;99.90;;;;;;5127472;27;20043;-64
2023/07/11 00:44:13;;;;;;;3.85;1.80;;;17.10;99.90;;;;;;5115270;27;20070;-64
2023/07/11 00:46:40;;;;;;;4.80;1.73;;;17.00;99.90;;;;;;5124514;27;20053;-65
2023/07/11 00:49:08;;;;;;;4.70;1.63;;;17.00;99.90;;;;;;5130171;27;20050;-64
2023/07/11 00:51:38;;;;;;;4.50;1.75;;;17.00;99.90;;;;;;5120534;27;20039;-64
2023/07/11 00:54:07;;;;;;;4.25;1.60;;;16.90;99.90;;;;;;5114075;27;20046;-63
2023/07/11 00:56:38;;;;;;;4.95;1.38;;;16.90;99.90;;;;;;5119432;27;20520;-65
2023/07/11 00:59:03;;;;;;;4.82;1.85;;;16.90;99.90;;;;;;5135182;27;20038;-66
2023/07/11 01:01:31;;;;;;;4.47;1.80;;;16.90;99.90;;;;;;5131318;27;20050;-64
2023/07/11 01:03:58;;;;;;;7.05;1.90;;;16.90;99.90;;;;;;5141982;27;20111;-64
2023/07/11 01:06:27;;;;;;;3.40;1.70;;;16.90;99.90;;;;;;5121540;27;20617;-64
2023/07/11 01:08:54;;;;;;;6.60;1.80;;;17.00;99.90;;;;;;5150746;27;20049;-66
2023/07/11 01:11:22;;;;;;;7.38;2.00;;;16.90;99.90;;;;;;5115563;27;20038;-65
2023/07/11 01:13:48;;;;;;;3.72;2.10;;;16.90;99.90;;;;;;5124549;27;20074;-65
2023/07/11 01:16:14;;;;;;;5.70;1.95;;;16.80;99.90;;;;;;5114329;27;20461;-65
2023/07/11 01:18:40;;;;;;;5.68;1.85;;;16.80;99.90;;;;;;5149696;27;20045;-65
2023/07/11 01:21:06;;;;;;;6.07;2.13;;;16.70;99.90;;;;;;5152968;27;20409;-66
2023/07/11 01:23:33;;;;;;;3.75;1.92;;;16.60;99.90;;;;;;5125947;27;20070;-64
2023/07/11 01:26:04;;;;;;;3.35;1.60;;;16.50;99.90;;;;;;5134249;27;20103;-64
2023/07/11 01:28:30;;;;;;;5.72;1.88;;;16.50;99.90;;;;;;5152539;27;20034;-65
2023/07/11 01:30:55;;;;;;;3.08;1.73;;;16.40;99.90;;;;;;5120406;27;20047;-65
2023/07/11 01:33:24;;;;;;;3.67;1.90;;;16.40;99.90;;;;;;5121554;27;20060;-64
2023/07/11 01:35:54;;;;;;;5.90;2.22;;;16.30;99.90;;;;;;5134406;27;20435;-65
2023/07/11 01:38:22;;;;;;;3.10;1.70;;;16.30;99.90;;;;;;5150647;27;20034;-64
2023/07/11 01:40:49;;;;;;;2.50;1.80;;;16.20;99.90;;;;;;5114385;27;20468;-65
2023/07/11 01:43:16;;;;;;;5.20;1.85;;;16.20;99.90;;;;;;5134124;27;20027;-65
2023/07/11 01:45:42;;;;;;;4.60;1.90;;;16.20;99.90;;;;;;5126163;27;20070;-65
2023/07/11 01:48:08;;;;;;;3.83;1.85;;;16.10;99.90;;;;;;5121961;27;20448;-65
2023/07/11 01:50:33;;;;;;;5.65;1.90;;;16.10;99.90;;;;;;5117221;27;20035;-63
2023/07/11 01:52:59;;;;;;;4.72;1.85;;;16.10;99.90;;;;;;5114914;27;20038;-65
2023/07/11 01:55:25;;;;;;;3.90;1.88;;;16.10;99.90;;;;;;5113599;27;20431;-65
2023/07/11 01:57:50;;;;;;;4.15;1.52;;;16.10;99.90;;;;;;5096113;27;20101;-65
2023/07/11 02:00:17;;;;;;;4.13;1.60;;;16.10;99.90;;;;;;5113331;27;20118;-64
2023/07/11 02:02:42;;;;;;;5.07;1.83;;;16.10;99.90;;;;;;5124546;27;20393;-65
2023/07/11 02:05:08;;;;;;;4.38;1.98;;;16.10;99.90;;;;;;5113550;27;20196;-64
2023/07/11 02:07:34;;;;;;;4.30;2.15;;;16.10;99.90;;;;;;5123995;27;20076;-63
2023/07/11 02:09:59;;;;;;;5.57;2.80;;;16.10;99.90;;;;;;5133465;27;20031;-64
2023/07/11 02:12:25;;;;;;;6.15;2.60;;;16.00;99.90;;;;;;5152054;27;20042;-65
2023/07/11 02:14:51;;;;;;;5.00;2.30;;;16.00;99.90;;;;;;5119806;27;20050;-65
2023/07/11 02:17:16;;;;;;;5.15;2.20;;;16.00;99.90;;;;;;5117130;27;20489;-64
2023/07/11 02:19:44;;;;;;;3.88;2.00;;;16.00;99.90;;;;;;5109459;28;20097;-65
2023/07/11 02:22:12;;;;;;;4.43;2.08;;;16.00;99.90;;;;;;5092913;28;20055;-64
2023/07/11 02:24:39;;;;;;;4.00;2.00;;;15.90;99.90;;;;;;5109469;28;20112;-64
2023/07/11 02:27:05;;;;;;;5.45;2.20;;;15.90;99.90;;;;;;5091187;28;20048;-66
2023/07/11 02:29:31;;;;;;;6.32;2.63;;;15.90;99.90;;;;;;5110879;28;20386;-65
2023/07/11 02:31:56;;;;;;;5.60;3.00;;;15.80;99.90;;;;;;5109551;28;20031;-65
2023/07/11 02:34:22;;;;;;;5.82;2.55;;;15.80;99.90;;;;;;5109486;28;20043;-65
2023/07/11 02:36:48;;;;;;;7.32;2.50;;;15.80;99.90;;;;;;5109376;28;20042;-64
2023/07/11 02:39:14;;;;;;;4.15;2.47;;;15.80;99.90;;;;;;5092390;28;20051;-65
2023/07/11 02:41:40;;;;;;;4.55;2.55;;;15.80;99.90;;;;;;5109304;28;20126;-66
2023/07/11 02:44:05;;;;;;;4.38;2.65;;;15.80;99.90;;;;;;5110708;28;20478;-63
2023/07/11 02:46:31;;;;;;;5.28;2.85;;;15.70;99.90;;;;;;5092486;28;20115;-64
2023/07/11 02:48:57;;;;;;;3.58;2.20;;;15.70;99.90;;;;;;5105562;28;20486;-64
2023/07/11 02:51:24;;;;;;;4.95;2.20;;;15.70;99.90;;;;;;5109296;28;20040;-65
2023/07/11 02:53:49;;;;;;;4.82;2.45;;;15.70;99.90;;;;;;5109711;28;20494;-65
2023/07/11 02:56:16;;;;;;;3.42;2.35;;;15.60;99.90;;;;;;5110460;28;20066;-65
2023/07/11 02:58:41;;;;;;;4.60;2.30;;;15.60;99.90;;;;;;5109271;28;20043;-64
2023/07/11 03:01:08;;;;;;;3.67;2.05;;;15.60;99.90;;;;;;5109033;28;20071;-65
2023/07/11 03:03:33;;;;;;;3.03;2.15;;;15.50;99.90;;;;;;5109514;28;20417;-64
2023/07/11 03:05:59;;;;;;;3.55;2.00;;;15.50;99.90;;;;;;5109229;28;20043;-65
2023/07/11 03:08:25;;;;;;;3.75;2.20;;;15.50;99.90;;;;;;5108941;28;20039;-64
2023/07/11 03:10:51;;;;;;;4.53;2.08;;;15.50;99.90;;;;;;5109455;28;20390;-65
2023/07/11 03:13:18;;;;;;;6.95;2.35;;;15.50;99.90;;;;;;5109305;28;20051;-64
2023/07/11 03:15:44;;;;;;;3.30;2.15;;;15.60;99.90;;;;;;5109191;28;20054;-65
2023/07/11 03:18:12;;;;;;;6.82;2.40;;;15.60;99.90;;;;;;5113630;28;20039;-65
2023/07/11 03:20:39;;;;;;;3.28;2.20;;;15.60;99.90;;;;;;5112865;28;20051;-65
2023/07/11 03:23:06;;;;;;;5.75;2.60;;;15.50;99.90;;;;;;5096029;28;20044;-64
2023/07/11 03:25:32;;;;;;;5.57;2.30;;;15.60;99.90;;;;;;5096152;28;20100;-65
2023/07/11 03:27:57;;;;;;;5.97;2.50;;;15.60;99.90;;;;;;5113081;28;20036;-64
2023/07/11 03:30:23;;;;;;;3.80;2.30;;;15.60;99.90;;;;;;5112575;28;20031;-65
2023/07/11 03:32:49;;;;;;;4.13;2.20;;;15.60;99.90;;;;;;5113862;28;20119;-65
2023/07/11 03:35:14;;;;;;;5.43;2.08;;;15.60;99.90;;;;;;5112920;28;20079;-63
2023/07/11 03:37:40;;;;;;;3.45;2.15;;;15.60;99.90;;;;;;5112633;28;20475;-66
2023/07/11 03:40:07;;;;;;;5.25;2.78;;;15.60;99.90;;;;;;5112712;28;20132;-65
2023/07/11 03:42:32;;;;;;;7.68;2.38;;;15.60;99.90;;;;;;5112295;28;20048;-65
2023/07/11 03:44:58;;;;;;;6.30;2.60;;;15.60;99.90;;;;;;5112004;28;20044;-65
2023/07/11 03:47:24;;;;;;;4.10;2.00;;;15.60;99.90;;;;;;5112301;28;20119;-64
2023/07/11 03:49:49;;;;;;;6.82;2.13;;;15.60;99.90;;;;;;5112413;28;20051;-65
2023/07/11 03:52:15;;;;;;;4.35;2.20;;;15.50;99.90;;;;;;5112709;28;20048;-63
2023/07/11 03:54:40;;;;;;;4.15;2.10;;;15.50;99.90;;;;;;5112390;28;20051;-63
2023/07/11 03:57:06;;;;;;;5.80;2.00;;;15.50;99.90;;;;;;5112107;28;20084;-65
2023/07/11 03:59:32;;;;;;;5.20;2.17;;;15.50;99.90;;;;;;5112261;28;20131;-65
2023/07/11 04:01:57;;;;;;;4.60;1.88;;;15.60;99.90;;;;;;5111945;28;20039;-65
2023/07/11 04:04:23;;;;;;;5.28;2.70;;;15.60;99.90;;;;;;5112103;28;20060;-65
2023/07/11 04:06:49;;;;;;;5.75;2.50;;;15.60;99.90;;;;;;5094938;28;20035;-65
2023/07/11 04:09:14;;;;;;;4.20;2.35;;;15.60;99.90;;;;;;5112161;28;20047;-65
2023/07/11 04:11:40;;;;;;;4.13;2.53;;;15.60;99.90;;;;;;5113371;28;20428;-64
2023/07/11 04:14:06;;;;;;;6.30;2.50;;;15.70;99.90;;;;;;5112148;28;20051;-65
2023/07/11 04:16:31;;;;;;;5.47;2.63;;;15.70;99.90;;;;;;5112197;28;20070;-65
2023/07/11 04:18:57;;;;;;;4.25;2.70;;;15.70;99.90;;;;;;5113014;27;20182;-65
2023/07/11 04:21:23;;;;;;;6.50;2.72;;;15.80;99.90;;;;;;5135556;27;20046;-66
2023/07/11 04:23:49;;;;;;;6.13;2.70;;;15.90;99.90;;;;;;5114859;27;20143;-64
2023/07/11 04:26:15;;;;;;;6.43;3.08;;;15.90;99.90;;;;;;5136478;27;20432;-65
2023/07/11 04:28:40;;;;;;;5.90;3.15;;;16.00;99.90;;;;;;5113756;27;20043;-66
2023/07/11 04:31:06;;;;;;;6.03;3.70;;;16.10;99.90;;;;;;5133488;27;20087;-64
2023/07/11 04:33:32;;;;;;;5.95;3.42;;;16.10;99.90;;;;;;5115239;27;20525;-64
2023/07/11 04:36:24;;;;;;;9.50;4.13;;;16.20;99.90;;;;;;5116947;27;20077;-66
2023/07/11 04:38:50;;;;;;;9.98;3.78;;;16.30;99.90;;;;;;5110934;27;20104;-65
2023/07/11 04:41:16;;;;;;;8.82;3.88;;;16.40;99.90;;;;;;5114695;27;20303;-65
2023/07/11 04:43:41;;;;;;;8.82;4.63;;;16.50;99.90;;;;;;5114762;27;20039;-65
2023/07/11 04:46:08;;;;;;;7.72;4.10;;;16.60;99.90;;;;;;5114758;27;20031;-65
2023/07/11 04:48:35;;;;;;;7.35;4.03;;;16.70;99.90;;;;;;5115088;27;20035;-64
2023/07/11 04:51:04;;;;;;;7.07;4.00;;;16.80;99.90;;;;;;5133140;27;20530;-64
2023/07/11 04:53:30;;;;;;;7.75;4.18;;;16.90;99.90;;;;;;5101351;27;20038;-65
2023/07/11 04:55:58;;;;;;;7.10;4.22;;;17.00;99.90;;;;;;5130428;27;20046;-65
2023/07/11 04:58:24;;;;;;;12.18;4.70;;;17.10;99.90;;;;;;5135038;27;20043;-64
2023/07/11 05:00:50;;;;;;;8.25;4.63;;;17.10;99.90;;;;;;5147327;27;20112;-65
2023/07/11 05:03:16;;;;;;;6.72;4.00;;;17.10;99.90;;;;;;5117282;27;20135;-64
2023/07/11 05:05:42;;;;;;;8.70;4.68;;;17.20;99.90;;;;;;5114421;27;20500;-65
2023/07/11 05:08:07;;;;;;;8.13;4.70;;;17.20;99.90;;;;;;5125582;27;20039;-66
2023/07/11 05:10:33;;;;;;;8.07;4.70;;;17.30;99.90;;;;;;5118880;27;20382;-66
2023/07/11 05:12:59;;;;;;;10.30;4.90;;;17.40;99.90;;;;;;5114734;27;20046;-65
2023/07/11 05:15:24;;;;;;;9.85;5.10;;;17.60;99.90;;;;;;5128928;27;20142;-64
2023/07/11 05:17:50;;;;;;;8.95;4.90;;;17.70;99.90;;;;;;5119057;27;20494;-63
2023/07/11 05:20:16;;;;;;;8.48;5.30;;;17.80;99.90;;;;;;5127053;27;20047;-65
2023/07/11 05:22:41;;;;;;;8.88;5.90;;;17.80;99.90;;;;;;5120812;27;20069;-65
2023/07/11 05:25:07;;;;;;;10.35;5.50;;;17.80;99.90;;;;;;5113836;27;20039;-65
2023/07/11 05:27:34;;;;;;;9.73;5.78;;;17.90;99.90;;;;;;5097631;27;20130;-65
2023/07/11 05:29:59;;;;;;;11.43;5.45;;;18.00;99.90;;;;;;5128729;27;20031;-66
2023/07/11 05:32:25;;;;;;;12.20;5.70;;;18.10;99.90;;;;;;5123829;27;20580;-65
2023/07/11 05:34:51;;;;;;;9.93;5.40;;;18.30;99.90;;;;;;5113673;27;20042;-65
2023/07/11 05:37:16;;;;;;;12.15;6.57;;;18.30;99.90;;;;;;5115046;27;20035;-65
2023/07/11 05:39:42;;;;;;;8.93;5.22;;;18.40;99.90;;;;;;5133833;27;20071;-64
2023/07/11 05:42:07;;;;;;;7.43;5.05;;;18.40;99.90;;;;;;5116658;27;20374;-65
2023/07/11 05:44:33;;;;;;;6.93;4.72;;;18.60;99.90;;;;;;5151025;27;20098;-64
2023/07/11 05:46:59;;;;;;;9.40;4.97;;;18.80;99.90;;;;;;5131856;27;20244;-64
2023/07/11 05:49:24;;;;;;;8.23;4.93;;;19.00;99.90;;;;;;5125531;27;20039;-65
2023/07/11 05:51:50;;;;;;;9.77;5.38;;;19.10;99.90;;;;;;5125672;27;20488;-65
2023/07/11 05:54:16;;;;;;;9.15;5.28;;;19.30;99.90;;;;;;5143876;27;20420;-65
2023/07/11 05:56:42;;;;;;;9.90;5.07;;;19.50;99.90;;;;;;5140068;27;20099;-64
2023/07/11 05:59:07;;;;;;;9.68;4.78;;;19.60;99.90;;;;;;5132284;27;20561;-64
2023/07/11 06:01:34;;;;;;;8.93;4.82;;;19.70;99.90;;;;;;5131006;27;20039;-66
2023/07/11 06:04:10;;;;;;;11.77;4.88;;;19.80;99.90;;;;;;5112932;27;20035;-65
2023/07/11 06:06:41;;;;;;;7.35;5.20;;;20.00;99.90;;;;;;5114227;27;20516;-65
2023/07/11 06:09:15;;;;;;;12.07;5.35;;;20.20;99.90;;;;;;5118808;27;20126;-64
2023/07/11 06:11:41;;;;;;;8.55;5.10;;;20.40;99.90;;;;;;5133622;27;20050;-64
2023/07/11 06:14:08;;;;;;;8.85;4.82;;;20.50;99.90;;;;;;5133438;27;20082;-65
2023/07/11 06:16:34;;;;;;;9.70;5.28;;;20.60;99.90;;;;;;5133418;27;20362;-65
2023/07/11 06:18:59;;;;;;;9.75;4.88;;;20.70;99.90;;;;;;5098365;27;20051;-66
2023/07/11 06:21:25;;;;;;;8.73;5.20;;;20.70;99.90;;;;;;5112834;27;20051;-65
2023/07/11 06:23:51;;;;;;;10.52;4.90;;;20.60;99.90;;;;;;5120336;27;20507;-64
2023/07/11 06:26:16;;;;;;;6.50;4.78;;;20.70;99.90;;;;;;5114227;27;20492;-63
2023/07/11 06:28:43;;;;;;;9.32;4.90;;;20.60;99.90;;;;;;5113053;27;20054;-63
2023/07/11 06:31:11;;;;;;;10.10;5.40;;;20.60;99.90;;;;;;5131153;27;20027;-64
2023/07/11 06:33:36;;;;;;;10.38;5.03;;;20.80;99.90;;;;;;5140419;27;20034;-64
2023/07/11 06:36:06;;;;;;;9.10;5.18;;;20.80;99.90;;;;;;5112970;28;20035;-64
2023/07/11 06:38:32;;;;;;;8.13;4.93;;;20.80;99.90;;;;;;5114111;27;20078;-65
2023/07/11 06:40:58;;;;;;;7.22;4.70;;;20.90;99.90;;;;;;5151535;27;20066;-65
2023/07/11 06:43:25;;;;;;;8.30;4.28;;;20.90;99.90;;;;;;5132549;27;20430;-65
2023/07/11 06:45:55;;;;;;;11.10;4.43;;;20.90;99.90;;;;;;5133262;27;20476;-64
2023/07/11 06:48:23;;;;;;;7.93;4.75;;;21.00;99.90;;;;;;5133254;27;20114;-65
2023/07/11 06:51:01;;;;;;;7.13;4.40;;;21.10;99.90;;;;;;5128830;27;20045;-65
2023/07/11 06:53:30;;;;;;;10.05;4.60;;;21.20;99.90;;;;;;5105284;27;20057;-66
2023/07/11 06:55:57;;;;;;;9.00;4.40;;;21.40;99.90;;;;;;5117678;27;20043;-66
2023/07/11 06:58:23;;;;;;;6.82;3.97;;;21.60;99.90;;;;;;5124255;27;20034;-65
2023/07/11 07:01:03;;;;;;;10.45;4.30;;;21.90;99.90;;;;;;5155749;27;20052;-66
2023/07/11 07:03:30;;;;;;;9.20;4.93;;;22.20;99.90;;;;;;5155597;27;20083;-64
2023/07/11 07:06:02;;;;;;;5.07;3.53;;;22.40;99.90;;;;;;5137143;27;20030;-64
2023/07/11 07:08:28;;;;;;;6.45;3.75;;;22.50;99.90;;;;;;5124322;27;20034;-64
2023/07/11 07:10:54;;;;;;;6.95;4.30;;;22.50;99.90;;;;;;5137228;27;20057;-66
2023/07/11 07:13:21;;;;;;;7.07;3.65;;;22.40;99.90;;;;;;5127196;27;20042;-65
2023/07/11 07:15:52;;;;;;;7.45;4.25;;;22.50;99.90;;;;;;5127982;27;20042;-65
2023/07/11 07:18:18;;;;;;;7.07;3.85;;;22.50;99.90;;;;;;5099836;27;20031;-65
2023/07/11 07:20:48;;;;;;;6.60;3.58;;;22.60;99.90;;;;;;5134402;27;20373;-65
2023/07/11 07:23:14;;;;;;;5.60;3.35;;;22.70;99.90;;;;;;5129609;27;20047;-65
2023/07/11 07:25:40;;;;;;;5.03;3.30;;;22.80;99.90;;;;;;5153802;27;20031;-66
2023/07/11 07:28:07;;;;;;;6.65;3.13;;;22.80;99.90;;;;;;5123894;27;20034;-64
2023/07/11 07:30:34;;;;;;;7.32;3.50;;;22.80;99.90;;;;;;5127795;27;20046;-65
2023/07/11 07:33:00;;;;;;;6.20;3.05;;;22.80;99.90;;;;;;5140315;27;20046;-64
2023/07/11 07:35:26;;;;;;;7.07;3.20;;;22.90;99.90;;;;;;5132352;27;20046;-65
2023/07/11 07:37:51;;;;;;;4.72;3.45;;;22.90;99.90;;;;;;5136436;27;20065;-64
2023/07/11 07:40:17;;;;;;;6.90;3.00;;;23.00;99.90;;;;;;5136700;27;20038;-65
2023/07/11 07:42:43;;;;;;;5.05;2.70;;;23.20;99.90;;;;;;5128741;27;20436;-66
2023/07/11 07:45:09;;;;;;;6.65;3.28;;;23.20;99.90;;;;;;5136416;27;20038;-65
2023/07/11 07:47:37;;;;;;;5.80;2.88;;;23.20;99.90;;;;;;5136505;27;20370;-66
2023/07/11 07:50:03;;;;;;;6.93;2.60;;;23.30;99.90;;;;;;5136782;27;20477;-65
2023/07/11 07:52:29;;;;;;;6.07;2.72;;;23.30;99.90;;;;;;5135852;27;20049;-63
2023/07/11 07:54:55;;;;;;;6.22;2.65;;;23.60;99.90;;;;;;5134202;27;20397;-64
2023/07/11 07:57:20;;;;;;;8.50;2.58;;;23.90;99.90;;;;;;5105543;27;20047;-64
2023/07/11 07:59:46;;;;;;;6.72;2.75;;;24.00;99.90;;;;;;5135231;27;20049;-64
2023/07/11 08:02:12;;;;;;;7.57;2.72;;;24.30;99.90;;;;;;5142499;27;20440;-66
2023/07/11 08:04:37;;;;;;;5.88;2.40;;;24.50;99.90;;;;;;5129847;27;20370;-66
2023/07/11 08:07:03;;;;;;;5.95;2.88;;;24.80;99.90;;;;;;5154443;27;20091;-66
2023/07/11 08:09:29;;;;;;;6.88;2.30;;;25.00;99.90;;;;;;5134686;27;20059;-66
2023/07/11 08:12:03;;;;;;;4.65;2.20;;;25.20;99.90;;;;;;5123612;27;20043;-66
2023/07/11 08:14:29;;;;;;;5.30;2.25;;;25.40;99.80;;;;;;5117567;27;20122;-65
2023/07/11 08:16:54;;;;;;;8.43;2.55;;;25.60;99.40;;;;;;5140774;27;20118;-63
2023/07/11 08:19:20;;;;;;;4.97;2.20;;;25.80;99.30;;;;;;5135664;27;20400;-64
2023/07/11 08:21:46;;;;;;;6.30;2.50;;;25.80;97.70;;;;;;5119674;27;20051;-64
2023/07/11 08:24:12;;;;;;;6.03;2.30;;;25.90;97.40;;;;;;5122441;27;20101;-66
2023/07/11 08:26:38;;;;;;;6.82;2.20;;;26.00;97.20;;;;;;5132808;27;20068;-65
2023/07/11 08:29:04;;;;;;;5.25;1.73;;;26.10;97.20;;;;;;5129742;27;20034;-65
2023/07/11 08:31:29;;;;;;;4.20;2.03;;;26.30;96.80;;;;;;5128085;27;20038;-64
2023/07/11 08:33:55;;;;;;;4.78;2.33;;;26.50;96.30;;;;;;5121725;27;20038;-66
2023/07/11 08:36:21;;;;;;;4.47;1.77;;;26.40;95.10;;;;;;5116564;27;20039;-64
2023/07/11 08:38:46;;;;;;;4.13;1.98;;;26.40;94.90;;;;;;5147654;27;20050;-64
2023/07/11 08:41:31;;;;;;;6.47;1.90;;;26.60;94.60;;;;;;5130436;27;20039;-65
2023/07/11 08:44:03;;;;;;;3.28;1.80;;;26.60;93.30;;;;;;5121872;27;20046;-65
2023/07/11 08:46:34;;;;;;;3.63;1.80;;;26.40;92.70;;;;;;5135879;27;20482;-65
2023/07/11 08:49:01;;;;;;;6.10;1.92;;;26.30;93.30;;;;;;5123783;27;20090;-64
2023/07/11 08:51:37;;;;;;;4.55;1.92;;;26.20;93.30;;;;;;5126990;27;20034;-64
2023/07/11 08:54:18;;;;;;;5.30;1.88;;;26.10;92.90;;;;;;5125451;27;20727;-64
2023/07/11 08:56:47;;;;;;;3.50;1.45;;;25.90;92.40;;;;;;5118916;27;20043;-64
2023/07/11 08:59:19;;;;;;;3.55;1.70;;;25.80;92.70;;;;;;5135018;27;20035;-65
2023/07/11 09:02:00;;;;;;;6.63;1.65;;;25.90;91.70;;;;;;5154084;27;20508;-64
2023/07/11 09:04:27;;;;;;;8.25;2.15;;;26.10;92.90;;;;;;5115732;27;20039;-65
2023/07/11 09:07:04;;;;;;;6.82;1.90;;;26.40;93.50;;;;;;5142922;27;20046;-64
2023/07/11 09:09:29;;;;;;;7.28;1.88;;;26.60;93.20;;;;;;5139974;27;20066;-65
2023/07/11 09:12:01;;;;;;;5.13;2.00;;;26.60;92.20;;;;;;5146350;27;20070;-64
2023/07/11 09:14:33;;;;;;;5.68;2.00;;;26.60;92.10;;;;;;5134309;27;20523;-66
2023/07/11 09:17:09;;;;;;;;;;;26.60;91.20;;;;;;5126565;27;20039;-65
2023/07/11 09:19:42;;;;;;;4.85;1.75;;;26.60;91.60;;;;;;5126379;27;20399;-64
2023/07/11 09:22:41;;;;;;;3.92;2.08;;;26.60;91.70;;;;;;5116630;27;20486;-66
2023/07/11 09:25:26;;;;;;;8.35;1.88;;;26.80;91.20;;;;;;5131059;27;20035;-66
2023/07/11 09:27:56;;;;;;;5.75;1.90;;;26.80;91.90;;;;;;5114687;27;20035;-65
2023/07/11 09:30:45;;;;;;;4.05;1.85;;;26.90;91.20;;;;;;5122173;27;20049;-64
2023/07/11 09:33:15;;;;;;;5.80;2.20;;;27.20;91.00;;;;;;5134279;27;20054;-66
2023/07/11 09:35:43;;;;;;;4.57;1.80;;;27.40;90.80;;;;;;5105777;27;20046;-65
2023/07/11 09:38:18;;;;;;;4.05;1.70;;;27.50;90.30;;;;;;5134338;27;20484;-66
2023/07/11 09:41:11;;;;;;;8.30;2.28;;;27.80;90.70;;;;;;5133160;27;20504;-64
2023/07/11 09:43:36;;;;;;;5.35;1.88;;;28.10;89.10;;;;;;5123004;27;20050;-66
2023/07/11 09:46:09;;;;;;;7.18;1.95;;;28.30;90.50;;;;;;5113691;27;20039;-65
2023/07/11 09:48:36;;;;;;;5.47;1.80;;;28.40;89.20;;;;;;5113644;27;20043;-65
2023/07/11 09:51:13;;;;;;;8.00;2.20;;;28.60;89.00;;;;;;5113771;27;20031;-65
2023/07/11 09:53:46;;;;;;;4.13;1.52;;;28.70;89.30;;;;;;5108419;27;20111;-66
2023/07/11 09:56:14;;;;;;;4.07;1.88;;;28.80;88.00;;;;;;5121487;27;20039;-64
2023/07/11 09:58:45;;;;;;;4.82;1.80;;;28.80;87.60;;;;;;5127609;27;20080;-65
2023/07/11 10:01:24;;;;;;;6.22;2.00;;;28.90;87.00;;;;;;5133816;27;20035;-66
2023/07/11 10:03:53;;;;;;;7.43;2.30;;;29.00;87.60;;;;;;5116976;27;20027;-65
2023/07/11 10:06:44;;;;;;;5.38;2.20;;;29.10;87.70;;;;;;5132354;27;20034;-64
2023/07/11 10:09:30;;;;;;;4.90;1.67;;;29.30;85.90;;;;;;5118609;27;20038;-64
2023/07/11 10:12:02;;;;;;;6.13;1.75;;;29.20;84.20;;;;;;5132064;27;20043;-64
2023/07/11 10:14:33;;;;;;;5.40;1.83;;;29.10;84.80;;;;;;5113098;27;20450;-66
2023/07/11 10:17:03;;;;;;;6.55;1.85;;;28.80;82.80;;;;;;5124808;27;20061;-65
2023/07/11 10:19:29;;;;;;;5.57;1.70;;;28.90;83.60;;;;;;5133417;27;20031;-65
2023/07/11 10:21:59;;;;;;;4.68;1.77;;;28.90;83.90;;;;;;5117974;27;20047;-65
2023/07/11 10:24:32;;;;;;;5.28;1.60;;;28.90;82.60;;;;;;5128048;27;20099;-64
2023/07/11 10:27:03;;;;;;;8.52;1.85;;;29.00;81.80;;;;;;5151567;27;20045;-65
2023/07/11 10:29:36;;;;;;;5.03;1.60;;;29.00;82.40;;;;;;5133199;27;20039;-64
2023/07/11 10:32:09;;;;;;;5.38;1.90;;;29.00;81.90;;;;;;5152281;27;20045;-66
2023/07/11 10:34:57;;;;;;;3.75;1.83;;;29.10;83.10;;;;;;5151337;27;20095;-65
2023/07/11 10:37:36;;;;;;;4.55;1.60;;;29.20;82.70;;;;;;5131158;27;20394;-65
2023/07/11 10:40:22;;;;;;;7.03;1.67;;;29.10;82.00;;;;;;5131140;27;20096;-65
2023/07/11 10:42:54;;;;;;;5.10;1.85;;;29.20;81.30;;;;;;5126760;27;20066;-65
2023/07/11 10:45:35;;;;;;;8.77;2.05;;;29.20;82.20;;;;;;5117762;27;20041;-65
2023/07/11 10:48:21;;;;;;;6.35;1.70;;;29.20;81.60;;;;;;5119179;27;20039;-65
2023/07/11 10:50:55;;;;;;;5.40;1.60;;;29.40;80.90;;;;;;5142981;27;20031;-66
2023/07/11 10:53:25;;;;;;;4.30;1.83;;;29.60;81.30;;;;;;5130972;27;20049;-65
2023/07/11 10:56:05;;;;;;;6.77;2.60;;;29.70;81.20;;;;;;5112801;27;20075;-66
2023/07/11 10:58:32;;;;;;;2.67;1.83;;;29.40;80.60;;;;;;5121078;27;20300;-65
2023/07/11 11:01:01;;;;;;;5.47;1.85;;;29.50;80.20;;;;;;5099362;27;20042;-64
2023/07/11 11:03:37;;;;;;;5.18;1.83;;;29.40;80.10;;;;;;5112588;27;20054;-66
2023/07/11 11:06:30;;;;;;;4.50;1.80;;;29.50;80.20;;;;;;5121282;27;20031;-65
2023/07/11 11:09:35;;;;;;;2.95;1.65;;;29.60;79.70;;;;;;5112579;27;20027;-65
2023/07/11 11:12:04;;;;;;;7.82;1.80;;;29.50;78.50;;;;;;5096628;27;20042;-65
2023/07/11 11:15:05;;;;;;;4.80;1.77;;;29.50;78.60;;;;;;5112941;27;20392;-64
2023/07/11 11:17:31;;;;;;;3.78;1.85;;;29.60;78.40;;;;;;5133472;27;20071;-64
2023/07/11 11:19:56;;;;;;;4.55;1.73;;;29.70;78.90;;;;;;5112091;27;20077;-66
2023/07/11 11:22:43;;;;;;;4.93;1.75;;;29.60;78.10;;;;;;5091962;28;20075;-66
2023/07/11 11:25:51;;;;;;;4.13;2.03;;;29.50;77.30;;;;;;5108949;28;20044;-65
2023/07/11 11:28:28;;;;;;;6.55;2.13;;;29.70;78.50;;;;;;5070491;28;20109;-65
2023/07/11 11:31:25;;;;;;;5.25;2.30;;;29.60;78.20;;;;;;5070406;28;20044;-65
2023/07/11 11:34:20;;;;;;;7.00;2.17;;;29.80;77.00;;;;;;5069564;28;20048;-66
2023/07/11 11:36:57;;;;;;;5.00;1.95;;;29.70;76.30;;;;;;5070529;28;20081;-65
2023/07/11 11:39:35;;;;;;;7.40;2.22;;;29.50;75.80;;;;;;5073884;28;20100;-66
2023/07/11 11:42:06;;;;;;;4.78;2.00;;;29.40;76.70;;;;;;5090315;28;20489;-64
2023/07/11 11:44:43;;;;;;;5.30;2.17;;;29.40;77.20;;;;;;5070758;28;20102;-65
2023/07/11 11:47:09;;;;;;;6.65;1.70;;;29.30;77.70;;;;;;5074067;28;20043;-65
2023/07/11 11:49:36;;;;;;;5.40;1.90;;;29.40;77.80;;;;;;5074319;28;20040;-66
2023/07/11 11:52:03;;;;;;;5.13;1.95;;;29.40;77.10;;;;;;5072338;28;20136;-65
2023/07/11 11:54:41;;;;;;;3.75;1.88;;;29.50;78.00;;;;;;5071829;28;20048;-65
2023/07/11 11:57:16;;;;;;;5.38;1.80;;;29.40;77.10;;;;;;5071174;28;20070;-66
2023/07/11 11:59:44;;;;;;;5.35;1.80;;;29.40;77.90;;;;;;5071194;28;20423;-66
2023/07/11 12:02:30;;;;;;;3.25;1.60;;;29.50;78.50;;;;;;5073664;28;20047;-65
2023/07/11 12:05:00;;;;;;;5.63;2.10;;;29.40;76.40;;;;;;5090942;28;20040;-65
2023/07/11 12:07:27;;;;;;;5.93;2.08;;;29.30;76.80;;;;;;5112020;28;20482;-65
2023/07/11 12:09:53;;;;;;;5.90;2.05;;;29.30;77.80;;;;;;5112196;28;20039;-65
2023/07/11 12:12:21;;;;;;;4.07;1.98;;;29.20;76.60;;;;;;5113070;28;20062;-66
2023/07/11 12:14:51;;;;;;;6.57;2.00;;;29.20;76.40;;;;;;5112307;28;20611;-65
2023/07/11 12:17:29;;;;;;;5.28;2.17;;;29.40;76.90;;;;;;5111760;28;20081;-66
2023/07/11 12:20:00;;;;;;;6.25;1.90;;;29.30;76.10;;;;;;5111853;28;20044;-66
2023/07/11 12:22:29;;;;;;;7.43;2.20;;;29.30;78.40;;;;;;5120463;27;20055;-66
2023/07/11 12:25:01;;;;;;;6.65;2.10;;;29.20;77.40;;;;;;5132222;27;20075;-65
2023/07/11 12:27:27;;;;;;;6.63;2.33;;;29.10;77.00;;;;;;5122166;27;20076;-66
2023/07/11 12:29:54;;;;;;;5.28;1.95;;;29.10;77.20;;;;;;5111633;28;20111;-65
2023/07/11 12:32:31;;;;;;;3.88;1.75;;;29.10;77.60;;;;;;5112874;27;20039;-65
2023/07/11 12:35:22;;;;;;;3.85;1.90;;;29.00;76.90;;;;;;5131410;27;20051;-66
2023/07/11 12:37:56;;;;;;;3.50;1.77;;;29.20;77.50;;;;;;5132172;27;20070;-66
2023/07/11 12:40:36;;;;;;;5.18;1.90;;;29.20;77.90;;;;;;5114672;27;20467;-65
2023/07/11 12:43:13;;;;;;;7.63;2.30;;;29.10;76.90;;;;;;5133129;27;20039;-66
2023/07/11 12:45:42;;;;;;;4.10;2.15;;;29.10;77.70;;;;;;5127442;27;20047;-66
2023/07/11 12:48:15;;;;;;;5.25;2.10;;;28.90;77.30;;;;;;5132196;27;20067;-66
2023/07/11 12:50:48;;;;;;;5.07;1.98;;;28.70;77.60;;;;;;5130716;27;20039;-66
2023/07/11 12:53:15;;;;;;;6.82;1.98;;;28.60;78.80;;;;;;5131596;27;20126;-65
2023/07/11 12:55:43;;;;;;;6.28;2.08;;;28.40;78.90;;;;;;5116947;27;20037;-66